Time;durP1;ratioP1;P1;durP2;ratioP2;P2;SDS_P1;SDS_P2;PMS_P1;PMS_P2;Temp;Humidity;BMP_temperature;BMP_pressure;BME280_temperature;BME280_humidity;BME280_pressure;Samples;Min_cycle;Max_cycle;Signal;HPM_P1;HPM_P2
2023/12/19 00:00:03;;;;;;;66.20;27.73;;;;;;;-145.18;100.00;46660.41;5072693;28;20261;-72
2023/12/19 00:02:29;;;;;;;67.30;28.60;;;;;;;-145.18;100.00;46654.53;5084533;28;20356;-71
2023/12/19 00:04:54;;;;;;;71.97;30.03;;;;;;;-145.18;100.00;46654.53;5090389;28;20364;-71
2023/12/19 00:07:19;;;;;;;67.57;31.23;;;;;;;-145.18;100.00;46656.50;5087558;28;20036;-71
2023/12/19 00:09:45;;;;;;;70.80;29.60;;;;;;;-145.18;100.00;46656.50;5091972;28;20464;-72
2023/12/19 00:12:11;;;;;;;66.13;27.23;;;;;;;-145.18;100.00;46652.59;5087659;28;20055;-73
2023/12/19 00:14:36;;;;;;;69.90;27.07;;;;;;;-145.18;100.00;46652.59;5074304;28;20039;-72
2023/12/19 00:17:02;;;;;;;64.33;27.70;;;;;;;-145.18;100.00;46650.63;5087079;28;20031;-72
2023/12/19 00:19:28;;;;;;;70.83;27.93;;;;;;;-145.18;100.00;46660.41;5071880;28;20106;-72
2023/12/19 00:21:53;;;;;;;75.97;28.77;;;;;;;-145.18;100.00;46654.53;5089911;28;20266;-72
2023/12/19 00:24:18;;;;;;;71.93;30.93;;;;;;;-145.18;100.00;46650.63;5082449;28;20047;-72
2023/12/19 00:26:44;;;;;;;70.90;28.60;;;;;;;-145.18;100.00;46652.59;5088927;28;20481;-72
2023/12/19 00:29:09;;;;;;;73.07;26.97;;;;;;;-145.18;100.00;46652.59;5084262;28;20037;-72
2023/12/19 00:31:35;;;;;;;77.60;30.20;;;;;;;-145.18;100.00;46652.59;5085346;28;20043;-72
2023/12/19 00:34:00;;;;;;;76.40;31.77;;;;;;;-145.18;100.00;46652.59;5057332;28;20085;-71
2023/12/19 00:36:25;;;;;;;74.63;27.50;;;;;;;-145.18;100.00;46652.59;5090059;28;20040;-72
2023/12/19 00:38:51;;;;;;;73.60;30.30;;;;;;;-145.18;100.00;46652.59;5057453;28;20032;-72
2023/12/19 00:41:16;;;;;;;68.53;29.93;;;;;;;-145.18;100.00;46652.59;5071913;28;20028;-72
2023/12/19 00:43:43;;;;;;;75.50;30.57;;;;;;;-145.18;100.00;46652.59;5072298;28;20044;-72
2023/12/19 00:46:08;;;;;;;69.40;28.33;;;;;;;-145.18;100.00;46650.63;5085308;28;20032;-72
2023/12/19 00:48:33;;;;;;;86.23;30.70;;;;;;;-145.18;100.00;46652.59;5083586;28;20808;-72
2023/12/19 00:50:59;;;;;;;74.20;30.23;;;;;;;-145.18;100.00;46654.53;5078312;28;20038;-72
2023/12/19 00:53:24;;;;;;;79.83;32.63;;;;;;;-145.18;100.00;46648.69;5078930;28;20474;-72
2023/12/19 00:55:49;;;;;;;72.30;30.63;;;;;;;-145.18;100.00;46646.72;5090603;28;20036;-72
2023/12/19 00:58:15;;;;;;;70.20;31.03;;;;;;;-145.18;100.00;46650.63;5088531;28;20122;-72
2023/12/19 01:00:40;;;;;;;76.63;31.47;;;;;;;-145.18;100.00;46652.59;5090863;28;20450;-72
2023/12/19 01:03:06;;;;;;;75.53;30.97;;;;;;;-145.18;100.00;46652.59;5085246;28;20112;-72
2023/12/19 01:05:31;;;;;;;78.57;32.90;;;;;;;-145.18;100.00;46652.59;5071877;28;20407;-72
2023/12/19 01:07:56;;;;;;;73.53;31.47;;;;;;;-145.18;100.00;46650.63;5091759;28;20032;-72
2023/12/19 01:10:22;;;;;;;90.93;32.90;;;;;;;-145.18;100.00;46656.50;5078811;28;20090;-72
2023/12/19 01:12:47;;;;;;;82.83;31.00;;;;;;;-145.18;100.00;46654.53;5083406;28;20111;-73
2023/12/19 01:15:13;;;;;;;86.27;34.90;;;;;;;-145.18;100.00;46652.59;5076940;28;20040;-72
2023/12/19 01:17:38;;;;;;;74.67;32.37;;;;;;;-145.18;100.00;46648.69;5079789;28;20043;-72
2023/12/19 01:20:04;;;;;;;75.10;31.63;;;;;;;-145.18;100.00;46652.59;5093648;28;20397;-72
2023/12/19 01:22:30;;;;;;;75.50;33.37;;;;;;;-145.18;100.00;46656.50;5089793;28;20071;-72
2023/12/19 01:24:55;;;;;;;72.57;30.40;;;;;;;-145.18;100.00;46650.63;5087265;28;20553;-72
2023/12/19 01:27:21;;;;;;;76.03;30.33;;;;;;;-145.18;100.00;46648.69;5076787;28;20128;-71
2023/12/19 01:29:46;;;;;;;80.60;31.80;;;;;;;-145.18;100.00;46650.63;5094617;28;20031;-71
2023/12/19 01:32:12;;;;;;;77.80;33.20;;;;;;;-145.18;100.00;46646.72;5089739;28;20058;-71
2023/12/19 01:34:37;;;;;;;76.23;31.40;;;;;;;-145.18;100.00;46652.59;5075814;28;20123;-71
2023/12/19 01:37:03;;;;;;;84.10;31.17;;;;;;;-145.18;100.00;46652.59;5089567;28;20040;-71
2023/12/19 01:39:28;;;;;;;73.17;31.23;;;;;;;-145.18;100.00;46658.44;5074194;28;20033;-71
2023/12/19 01:41:53;;;;;;;84.30;33.40;;;;;;;-145.18;100.00;46656.50;5075327;28;20158;-72
2023/12/19 01:44:19;;;;;;;77.73;31.80;;;;;;;-145.18;100.00;46650.63;5090935;28;20040;-72
2023/12/19 01:46:48;;;;;;;80.30;32.43;;;;;;;-145.18;100.00;46654.53;5074127;28;20035;-72
2023/12/19 01:49:13;;;;;;;77.40;32.10;;;;;;;-145.18;100.00;46648.69;5077607;28;20163;-72
2023/12/19 01:51:39;;;;;;;81.90;33.00;;;;;;;-145.18;100.00;46652.59;5081321;28;20367;-72
2023/12/19 01:54:07;;;;;;;80.43;32.33;;;;;;;-145.18;100.00;46648.69;5094151;28;20024;-72
2023/12/19 01:56:33;;;;;;;69.03;31.37;;;;;;;-145.18;100.00;46652.59;5090059;28;20032;-72
2023/12/19 01:59:00;;;;;;;76.00;30.23;;;;;;;-145.18;100.00;46648.69;5079261;28;20277;-73
2023/12/19 02:01:26;;;;;;;75.03;31.33;;;;;;;-145.18;100.00;46648.69;5090481;28;20028;-72
2023/12/19 02:03:52;;;;;;;72.90;30.50;;;;;;;-145.18;100.00;46650.63;5076000;28;20338;-72
2023/12/19 02:06:18;;;;;;;75.60;31.73;;;;;;;-145.18;100.00;46650.63;5069273;28;20364;-72
2023/12/19 02:08:44;;;;;;;80.47;32.23;;;;;;;-145.18;100.00;46648.69;5088449;28;20035;-72
2023/12/19 02:11:10;;;;;;;74.10;32.80;;;;;;;-145.18;100.00;46650.63;5090353;28;20268;-72
2023/12/19 02:13:36;;;;;;;81.27;31.00;;;;;;;-145.18;100.00;46652.59;5088185;28;20276;-72
2023/12/19 02:16:03;;;;;;;64.37;30.17;;;;;;;-145.18;100.00;46646.72;5077069;28;20040;-72
2023/12/19 02:18:28;;;;;;;75.77;31.23;;;;;;;-145.18;100.00;46652.59;5092318;28;20275;-72
2023/12/19 02:20:54;;;;;;;75.50;30.70;;;;;;;-145.18;100.00;46648.69;5077016;28;20269;-72
2023/12/19 02:23:20;;;;;;;75.67;31.10;;;;;;;-145.18;100.00;46652.59;5080387;28;20035;-72
2023/12/19 02:25:46;;;;;;;72.30;30.50;;;;;;;-145.18;100.00;46656.50;5100900;28;20273;-72
2023/12/19 02:28:12;;;;;;;61.07;28.77;;;;;;;-145.18;100.00;46652.59;5083552;28;20036;-75
2023/12/19 02:30:38;;;;;;;76.50;30.97;;;;;;;-145.18;100.00;46652.59;5074883;28;20024;-75
2023/12/19 02:33:04;;;;;;;67.27;30.67;;;;;;;-145.18;100.00;46652.59;5079883;28;20547;-75
2023/12/19 02:35:30;;;;;;;70.63;31.53;;;;;;;-145.18;100.00;46652.59;5089910;28;20027;-75
2023/12/19 02:37:56;;;;;;;70.03;28.73;;;;;;;-145.18;100.00;46656.50;5089886;28;20289;-75
2023/12/19 02:40:22;;;;;;;73.90;27.83;;;;;;;-145.18;100.00;46656.50;5077010;28;20265;-75
2023/12/19 02:42:47;;;;;;;67.60;30.40;;;;;;;-145.18;100.00;46650.63;5082931;28;20658;-75
2023/12/19 02:45:13;;;;;;;69.17;29.40;;;;;;;-145.18;100.00;46650.63;5064090;28;20272;-75
2023/12/19 02:47:38;;;;;;;72.93;29.23;;;;;;;-145.18;100.00;46648.69;5083052;28;20435;-75
2023/12/19 02:50:05;;;;;;;74.57;30.13;;;;;;;-145.18;100.00;46650.63;5075400;28;20020;-75
2023/12/19 02:52:30;;;;;;;72.07;29.37;;;;;;;-145.18;100.00;46656.50;5072445;28;20024;-75
2023/12/19 02:54:56;;;;;;;72.03;28.77;;;;;;;-145.18;100.00;46654.53;5087524;28;20326;-75
2023/12/19 02:57:21;;;;;;;66.70;28.80;;;;;;;-145.18;100.00;46650.63;5094191;28;20035;-75
2023/12/19 02:59:46;;;;;;;76.17;28.97;;;;;;;-145.18;100.00;46650.63;5081564;28;20028;-75
2023/12/19 03:02:12;;;;;;;63.40;28.33;;;;;;;-145.18;100.00;46644.78;5073226;28;20037;-75
2023/12/19 03:04:41;;;;;;;66.63;27.10;;;;;;;-145.18;100.00;46656.50;5092969;28;20476;-75
2023/12/19 03:07:07;;;;;;;67.73;29.33;;;;;;;-145.18;100.00;46652.59;5074397;28;20032;-75
2023/12/19 03:09:33;;;;;;;67.33;29.57;;;;;;;-145.18;100.00;46650.63;5083751;28;20292;-75
2023/12/19 03:12:06;;;;;;;72.17;29.00;;;;;;;-145.18;100.00;46652.59;5086308;28;20662;-75
2023/12/19 03:14:33;;;;;;;61.63;26.60;;;;;;;-145.18;100.00;46656.50;5079511;28;20032;-74
2023/12/19 03:17:00;;;;;;;66.90;28.57;;;;;;;-145.18;100.00;46648.69;5092350;28;20272;-74
2023/12/19 03:19:25;;;;;;;63.60;31.13;;;;;;;-145.18;100.00;46648.69;5084583;28;20757;-74
2023/12/19 03:21:51;;;;;;;70.03;30.33;;;;;;;-145.18;100.00;46652.59;5081637;28;20308;-74
2023/12/19 03:24:16;;;;;;;66.03;28.47;;;;;;;-145.18;100.00;46648.69;5070272;28;20815;-74
2023/12/19 03:26:42;;;;;;;70.10;28.20;;;;;;;-145.18;100.00;46650.63;5077318;28;20037;-75
2023/12/19 03:29:08;;;;;;;64.80;27.70;;;;;;;-145.18;100.00;46646.72;5072056;28;20044;-75
2023/12/19 03:31:33;;;;;;;68.10;30.07;;;;;;;-145.18;100.00;46650.63;5090918;28;20115;-73
2023/12/19 03:34:01;;;;;;;71.10;31.83;;;;;;;-145.18;100.00;46646.72;5071979;28;20358;-74
2023/12/19 03:36:26;;;;;;;69.53;30.37;;;;;;;-145.18;100.00;46648.69;5082714;28;20033;-74
2023/12/19 03:38:52;;;;;;;68.03;30.33;;;;;;;-145.18;100.00;46646.72;5079185;28;20260;-71
2023/12/19 03:41:17;;;;;;;69.87;29.67;;;;;;;-145.18;100.00;46652.59;5087750;28;20032;-72
2023/12/19 03:43:42;;;;;;;72.17;29.87;;;;;;;-145.18;100.00;46648.69;5081314;28;20041;-72
2023/12/19 03:46:08;;;;;;;63.63;28.97;;;;;;;-145.18;100.00;46654.53;5089549;28;20400;-71
2023/12/19 03:48:37;;;;;;;59.30;27.20;;;;;;;-145.18;100.00;46650.63;5088919;28;20040;-72
2023/12/19 03:51:03;;;;;;;65.80;28.30;;;;;;;-145.18;100.00;46646.72;5072435;28;20032;-72
2023/12/19 03:53:29;;;;;;;65.07;28.87;;;;;;;-145.18;100.00;46648.69;5075546;28;20281;-72
2023/12/19 03:55:55;;;;;;;52.93;24.57;;;;;;;-145.18;100.00;46648.69;5084660;28;20269;-72
2023/12/19 03:58:20;;;;;;;63.23;27.83;;;;;;;-145.18;100.00;46650.63;5084738;28;20119;-72
2023/12/19 04:00:46;;;;;;;61.77;27.70;;;;;;;-145.18;100.00;46646.72;5086591;28;20523;-72
2023/12/19 04:03:11;;;;;;;63.53;27.17;;;;;;;-145.18;100.00;46646.72;5072185;28;20028;-72
2023/12/19 04:05:37;;;;;;;50.73;23.83;;;;;;;-145.18;100.00;46650.63;5090263;28;20059;-72
2023/12/19 04:08:02;;;;;;;52.07;26.53;;;;;;;-145.18;100.00;46650.63;5080094;28;20040;-72
2023/12/19 04:10:28;;;;;;;50.73;24.57;;;;;;;-145.18;100.00;46648.69;5077690;28;20090;-72
2023/12/19 04:12:53;;;;;;;53.60;26.57;;;;;;;-145.18;100.00;46654.53;5072231;28;20074;-72
2023/12/19 04:15:19;;;;;;;49.53;22.60;;;;;;;-145.18;100.00;46648.69;5081364;28;20059;-72
2023/12/19 04:17:44;;;;;;;53.70;23.43;;;;;;;-145.18;100.00;46650.63;5078780;28;20032;-71
2023/12/19 04:20:11;;;;;;;45.93;23.20;;;;;;;-145.18;100.00;46654.53;5087335;28;20064;-72
2023/12/19 04:22:36;;;;;;;49.07;24.70;;;;;;;-145.18;100.00;46656.50;5084898;28;20025;-72
2023/12/19 04:25:02;;;;;;;42.73;22.97;;;;;;;-145.18;100.00;46648.69;5078397;28;20281;-72
2023/12/19 04:27:27;;;;;;;54.23;25.63;;;;;;;-145.18;100.00;46654.53;5075777;28;20381;-72
2023/12/19 04:29:55;;;;;;;46.50;23.67;;;;;;;-145.18;100.00;46650.63;5078397;28;20412;-72
2023/12/19 04:32:21;;;;;;;49.30;25.27;;;;;;;-145.18;100.00;46654.53;5077091;28;20425;-72
2023/12/19 04:34:46;;;;;;;51.50;22.80;;;;;;;-145.18;100.00;46650.63;5080612;28;20307;-71
2023/12/19 04:37:11;;;;;;;71.03;27.20;;;;;;;-145.18;100.00;46648.69;5071904;28;20037;-72
2023/12/19 04:39:37;;;;;;;60.23;27.93;;;;;;;-145.18;100.00;46652.59;5089609;28;20496;-72
2023/12/19 04:42:07;;;;;;;63.63;26.97;;;;;;;-145.18;100.00;46656.50;5083500;28;20029;-72
2023/12/19 04:44:36;;;;;;;65.17;27.43;;;;;;;-145.18;100.00;46656.50;5076013;28;20063;-72
2023/12/19 04:47:02;;;;;;;66.53;30.20;;;;;;;-145.18;100.00;46650.63;5077361;28;20418;-72
2023/12/19 04:49:28;;;;;;;67.67;29.97;;;;;;;-145.18;100.00;46654.53;5088112;28;20264;-74
2023/12/19 04:51:53;;;;;;;67.17;28.40;;;;;;;-145.18;100.00;46656.50;5062860;28;20264;-74
2023/12/19 04:54:20;;;;;;;65.37;29.33;;;;;;;-145.18;100.00;46652.59;5074222;28;20037;-73
2023/12/19 04:56:46;;;;;;;60.27;26.47;;;;;;;-145.18;100.00;46652.59;5076775;28;20146;-73
2023/12/19 04:59:11;;;;;;;57.93;23.50;;;;;;;-145.18;100.00;46658.44;5088101;28;20772;-73
2023/12/19 05:01:40;;;;;;;64.50;25.60;;;;;;;-145.18;100.00;46648.69;5087781;28;20081;-74
2023/12/19 05:04:06;;;;;;;52.57;24.83;;;;;;;-145.18;100.00;46650.63;5079137;28;20039;-74
2023/12/19 05:06:31;;;;;;;54.53;25.93;;;;;;;-145.18;100.00;46646.72;5094495;28;20272;-75
2023/12/19 05:08:57;;;;;;;55.00;26.13;;;;;;;-145.18;100.00;46648.69;5082375;28;20270;-74
2023/12/19 05:11:22;;;;;;;58.23;27.40;;;;;;;-145.18;100.00;46650.63;5077906;28;20032;-73
2023/12/19 05:13:48;;;;;;;51.13;24.93;;;;;;;-145.18;100.00;46652.59;5080109;28;20062;-73
2023/12/19 05:16:14;;;;;;;59.63;27.23;;;;;;;-145.18;100.00;46652.59;5093946;28;20374;-73
2023/12/19 05:18:43;;;;;;;52.13;25.23;;;;;;;-145.18;100.00;46654.53;5083434;28;20553;-73
2023/12/19 05:21:10;;;;;;;59.07;26.80;;;;;;;-145.18;100.00;46650.63;5077813;28;20261;-73
2023/12/19 05:23:36;;;;;;;56.23;26.67;;;;;;;-145.18;100.00;46652.59;5083428;28;20296;-73
2023/12/19 05:26:03;;;;;;;51.10;25.40;;;;;;;-145.18;100.00;46652.59;5079236;28;20281;-73
2023/12/19 05:28:29;;;;;;;50.00;25.93;;;;;;;-145.18;100.00;46654.53;5083073;28;20267;-73
2023/12/19 05:30:56;;;;;;;48.10;25.30;;;;;;;-145.18;100.00;46652.59;5085776;28;20281;-72
2023/12/19 05:33:26;;;;;;;54.27;25.20;;;;;;;-145.18;100.00;46650.63;5073507;28;20025;-73
2023/12/19 05:35:52;;;;;;;51.57;26.20;;;;;;;-145.18;100.00;46650.63;5075026;28;20264;-72
2023/12/19 05:38:18;;;;;;;54.03;25.53;;;;;;;-145.18;100.00;46654.53;5085547;28;20380;-73
2023/12/19 05:40:43;;;;;;;49.43;25.13;;;;;;;-145.18;100.00;46656.50;5088226;28;20032;-73
2023/12/19 05:43:09;;;;;;;50.10;25.33;;;;;;;-145.18;100.00;46646.72;5081767;28;20040;-72
2023/12/19 05:45:34;;;;;;;51.80;24.10;;;;;;;-145.18;100.00;46650.63;5074579;28;20029;-72
2023/12/19 05:48:00;;;;;;;49.10;24.73;;;;;;;-145.18;100.00;46650.63;5075178;28;20028;-73
2023/12/19 05:50:25;;;;;;;47.50;24.83;;;;;;;-145.18;100.00;46656.50;5083928;28;20024;-72
2023/12/19 05:52:52;;;;;;;50.60;24.20;;;;;;;-145.18;100.00;46658.44;5081927;28;20419;-73
2023/12/19 05:55:18;;;;;;;52.00;25.73;;;;;;;-145.18;100.00;46658.44;5089597;28;20036;-73
2023/12/19 05:57:44;;;;;;;55.13;26.13;;;;;;;-145.18;100.00;46656.50;5080725;28;20288;-72
2023/12/19 06:00:10;;;;;;;55.13;25.67;;;;;;;-145.18;100.00;46652.59;5094839;28;20629;-72
2023/12/19 06:02:35;;;;;;;50.30;25.57;;;;;;;-145.18;100.00;46652.59;5080027;28;20044;-72
2023/12/19 06:05:01;;;;;;;57.43;27.47;;;;;;;-145.18;100.00;46652.59;5087197;28;20032;-72
2023/12/19 06:07:26;;;;;;;57.37;26.77;;;;;;;-145.18;100.00;46652.59;5085827;28;20043;-72
2023/12/19 06:09:52;;;;;;;51.70;27.17;;;;;;;-145.18;100.00;46648.69;5069029;28;20119;-72
2023/12/19 06:12:17;;;;;;;55.57;25.50;;;;;;;-145.18;100.00;46654.53;5103590;28;20096;-72
2023/12/19 06:14:43;;;;;;;44.30;23.30;;;;;;;-145.18;100.00;46658.44;5081393;28;20036;-72
2023/12/19 06:17:08;;;;;;;45.77;24.77;;;;;;;-145.18;100.00;46652.59;5093400;28;20059;-72
2023/12/19 06:19:34;;;;;;;53.80;27.07;;;;;;;-145.18;100.00;46650.63;5086450;28;20053;-72
2023/12/19 06:22:01;;;;;;;55.90;27.30;;;;;;;-145.18;100.00;46656.50;5086973;28;20492;-72
2023/12/19 06:24:26;;;;;;;60.37;28.80;;;;;;;-145.18;100.00;46652.59;5073389;28;20320;-72
2023/12/19 06:26:52;;;;;;;63.87;30.20;;;;;;;-145.18;100.00;46656.50;5069008;28;20032;-72
2023/12/19 06:29:17;;;;;;;55.17;29.23;;;;;;;-145.18;100.00;46650.63;5087402;28;20067;-71
2023/12/19 06:31:44;;;;;;;60.10;30.13;;;;;;;-145.18;100.00;46648.69;5082166;28;20059;-72
2023/12/19 06:34:09;;;;;;;60.97;30.13;;;;;;;-145.18;100.00;46652.59;5084147;28;20052;-72
2023/12/19 06:36:37;;;;;;;62.17;29.43;;;;;;;-145.18;100.00;46654.53;5084220;28;20329;-72
2023/12/19 06:39:03;;;;;;;64.63;29.07;;;;;;;-145.18;100.00;46650.63;5084973;28;20024;-72
2023/12/19 06:41:28;;;;;;;54.07;27.07;;;;;;;-145.18;100.00;46652.59;5082521;28;20302;-72
2023/12/19 06:43:54;;;;;;;63.73;29.80;;;;;;;-145.18;100.00;46656.50;5079311;28;20028;-71
2023/12/19 06:46:20;;;;;;;68.33;31.53;;;;;;;-145.18;100.00;46646.72;5081948;28;20714;-72
2023/12/19 06:48:46;;;;;;;72.13;32.17;;;;;;;-145.18;100.00;46650.63;5076293;28;20069;-72
2023/12/19 06:51:32;;;;;;;62.23;30.90;;;;;;;-145.18;100.00;46648.69;5093899;28;20261;-72
2023/12/19 06:53:57;;;;;;;61.77;30.00;;;;;;;-145.18;100.00;46648.69;5078544;28;20717;-72
2023/12/19 06:56:26;;;;;;;69.30;30.87;;;;;;;-145.18;100.00;46648.69;5080518;28;20260;-72
2023/12/19 06:58:52;;;;;;;64.87;29.80;;;;;;;-145.18;100.00;46650.63;5079899;28;20081;-71
2023/12/19 07:01:18;;;;;;;59.40;29.57;;;;;;;-145.18;100.00;46658.44;5095815;28;20265;-71
2023/12/19 07:03:44;;;;;;;67.23;30.10;;;;;;;-145.18;100.00;46650.63;5081539;28;20284;-72
2023/12/19 07:06:15;;;;;;;58.07;28.43;;;;;;;-145.18;100.00;46654.53;5084644;28;20031;-72
2023/12/19 07:08:41;;;;;;;52.43;26.00;;;;;;;-145.18;100.00;46650.63;5083342;28;20110;-72
2023/12/19 07:11:07;;;;;;;57.70;27.20;;;;;;;-145.18;100.00;46648.69;5073949;28;20382;-71
2023/12/19 07:13:32;;;;;;;68.37;28.37;;;;;;;-145.18;100.00;46650.63;5091372;28;20441;-72
2023/12/19 07:15:58;;;;;;;63.00;28.40;;;;;;;-145.18;100.00;46654.53;5066722;28;20541;-72
2023/12/19 07:18:23;;;;;;;61.27;28.40;;;;;;;-145.18;100.00;46650.63;5072505;28;20628;-72
2023/12/19 07:20:49;;;;;;;64.93;29.57;;;;;;;-145.18;100.00;46652.59;5072485;28;20162;-72
2023/12/19 07:23:14;;;;;;;59.00;27.50;;;;;;;-145.18;100.00;46652.59;5077249;28;20167;-71
2023/12/19 07:25:40;;;;;;;65.83;30.40;;;;;;;-145.18;100.00;46656.50;5076307;28;20025;-72
2023/12/19 07:28:05;;;;;;;60.73;29.30;;;;;;;-145.18;100.00;46656.50;5079219;28;20503;-71
2023/12/19 07:30:31;;;;;;;65.63;28.07;;;;;;;-145.18;100.00;46654.53;5088470;28;21730;-71
2023/12/19 07:32:59;;;;;;;65.30;28.77;;;;;;;-145.18;100.00;46652.59;5070951;28;20277;-72
2023/12/19 07:35:24;;;;;;;64.20;29.87;;;;;;;-145.18;100.00;46652.59;5086477;28;20119;-72
2023/12/19 07:37:50;;;;;;;63.97;30.20;;;;;;;-145.18;100.00;46652.59;5072965;28;20364;-72
2023/12/19 07:40:15;;;;;;;54.73;24.37;;;;;;;-145.18;100.00;46652.59;5072714;28;20032;-71
2023/12/19 07:42:41;;;;;;;59.80;28.73;;;;;;;-145.18;100.00;46650.63;5082625;28;20040;-72
2023/12/19 07:45:07;;;;;;;57.83;27.30;;;;;;;-145.18;100.00;46652.59;5077387;28;20036;-71
2023/12/19 07:47:32;;;;;;;62.67;30.00;;;;;;;-145.18;100.00;46652.59;5078568;28;20035;-72
2023/12/19 07:49:58;;;;;;;61.77;29.30;;;;;;;-145.18;100.00;46656.50;5077152;28;20043;-71
2023/12/19 07:52:24;;;;;;;57.07;24.23;;;;;;;-145.18;100.00;46658.44;5079908;28;20497;-71
2023/12/19 07:54:49;;;;;;;52.07;25.03;;;;;;;-145.18;100.00;46652.59;5087925;28;20036;-72
2023/12/19 07:57:15;;;;;;;52.03;25.77;;;;;;;-145.18;100.00;46652.59;5071083;28;20131;-71
2023/12/19 07:59:41;;;;;;;50.80;26.30;;;;;;;-145.18;100.00;46652.59;5072006;28;20036;-71
2023/12/19 08:02:07;;;;;;;63.60;27.70;;;;;;;-145.18;100.00;46652.59;5079118;28;20818;-72
2023/12/19 08:04:33;;;;;;;48.17;26.97;;;;;;;-145.18;100.00;46650.63;5072013;28;20032;-71
2023/12/19 08:06:58;;;;;;;58.33;28.07;;;;;;;-145.18;100.00;46660.41;5082521;28;20487;-71
2023/12/19 08:09:24;;;;;;;58.73;27.87;;;;;;;-145.18;100.00;46656.50;5076974;28;20303;-71
2023/12/19 08:11:49;;;;;;;57.90;27.87;;;;;;;-145.18;100.00;46650.63;5073434;28;20086;-71
2023/12/19 08:14:15;;;;;;;60.10;27.70;;;;;;;-145.18;100.00;46658.44;5071414;28;20036;-71
2023/12/19 08:16:40;;;;;;;57.33;26.37;;;;;;;-145.18;100.00;46654.53;5082937;28;20036;-71
2023/12/19 08:19:05;;;;;;;57.80;27.37;;;;;;;-145.18;100.00;46654.53;5072001;28;20057;-71
2023/12/19 08:21:32;;;;;;;56.43;27.27;;;;;;;-145.18;100.00;46652.59;5090852;28;20051;-71
2023/12/19 08:23:57;;;;;;;50.43;24.80;;;;;;;-145.18;100.00;46652.59;5074531;28;20032;-71
2023/12/19 08:26:23;;;;;;;46.40;24.63;;;;;;;-145.18;100.00;46658.44;5074891;28;20265;-71
2023/12/19 08:28:49;;;;;;;49.70;25.07;;;;;;;-145.18;100.00;46652.59;5075318;28;20060;-71
2023/12/19 08:31:14;;;;;;;55.80;26.27;;;;;;;-145.18;100.00;46648.69;5077111;28;20365;-71
2023/12/19 08:33:41;;;;;;;52.23;24.97;;;;;;;-145.18;100.00;46656.50;5071489;28;20032;-71
2023/12/19 08:36:07;;;;;;;46.27;26.43;;;;;;;-145.18;100.00;46658.44;5080101;28;20072;-71
2023/12/19 08:38:32;;;;;;;47.17;22.40;;;;;;;-145.18;100.00;46654.53;5071790;28;20359;-71
2023/12/19 08:40:57;;;;;;;48.03;24.00;;;;;;;-145.18;100.00;46654.53;5079318;28;20115;-71
2023/12/19 08:43:23;;;;;;;57.00;26.93;;;;;;;-145.18;100.00;46656.50;5076711;28;20687;-71
2023/12/19 08:45:49;;;;;;;47.50;24.70;;;;;;;-145.18;100.00;46654.53;5089088;28;20059;-71
2023/12/19 08:48:14;;;;;;;49.87;25.50;;;;;;;-145.18;100.00;46652.59;5081562;28;20028;-71
2023/12/19 08:50:40;;;;;;;50.90;25.80;;;;;;;-145.18;100.00;46654.53;5075324;28;20433;-71
2023/12/19 08:53:05;;;;;;;50.37;26.53;;;;;;;-145.18;100.00;46652.59;5072242;28;20048;-71
2023/12/19 08:55:30;;;;;;;52.70;26.17;;;;;;;-145.18;100.00;46652.59;5072019;28;20037;-71
2023/12/19 08:57:57;;;;;;;50.23;24.80;;;;;;;-145.18;100.00;46652.59;5078725;28;20399;-71
2023/12/19 09:00:22;;;;;;;49.30;23.63;;;;;;;-145.18;100.00;46656.50;5080676;28;20039;-71
2023/12/19 09:02:48;;;;;;;49.87;26.13;;;;;;;-145.18;100.00;46650.63;5075315;28;20683;-71
2023/12/19 09:05:15;;;;;;;47.93;24.97;;;;;;;-145.18;100.00;46654.53;5073316;28;20040;-71
2023/12/19 09:07:42;;;;;;;54.13;24.93;;;;;;;-145.18;100.00;46656.50;5076979;28;20032;-71
2023/12/19 09:10:08;;;;;;;38.00;20.93;;;;;;;-145.18;100.00;46656.50;5077346;28;20304;-71
2023/12/19 09:12:34;;;;;;;47.30;24.40;;;;;;;-145.18;100.00;46652.59;5075124;28;20288;-71
2023/12/19 09:15:00;;;;;;;45.10;23.37;;;;;;;-145.18;100.00;46656.50;5077506;28;20268;-71
2023/12/19 09:17:26;;;;;;;38.53;20.10;;;;;;;-145.18;100.00;46652.59;5076510;28;20647;-70
2023/12/19 09:19:51;;;;;;;40.40;20.33;;;;;;;-145.18;100.00;46650.63;5070916;28;20087;-71
2023/12/19 09:22:16;;;;;;;38.50;20.77;;;;;;;-145.18;100.00;46646.72;5073873;28;20040;-70
2023/12/19 09:24:42;;;;;;;39.20;20.97;;;;;;;-145.18;100.00;46650.63;5077896;28;20033;-70
2023/12/19 09:27:08;;;;;;;37.50;19.97;;;;;;;-145.18;100.00;46652.59;5086064;28;20467;-70
2023/12/19 09:29:33;;;;;;;38.53;20.60;;;;;;;-145.18;100.00;46652.59;5076837;28;20372;-71
2023/12/19 09:32:01;;;;;;;42.27;21.63;;;;;;;-145.18;100.00;46654.53;5085617;28;20041;-71
2023/12/19 09:34:27;;;;;;;39.43;22.17;;;;;;;-145.18;100.00;46654.53;5071520;28;20495;-72
2023/12/19 09:36:52;;;;;;;37.77;20.73;;;;;;;-145.18;100.00;46648.69;5074596;28;20331;-72
2023/12/19 09:39:17;;;;;;;35.60;19.97;;;;;;;-145.18;100.00;46650.63;5071835;28;20036;-71
2023/12/19 09:41:47;;;;;;;36.13;18.27;;;;;;;-145.18;100.00;46656.50;5090444;28;20113;-71
2023/12/19 09:44:12;;;;;;;40.53;19.97;;;;;;;-145.18;100.00;46654.53;5085703;28;20067;-71
2023/12/19 09:46:38;;;;;;;37.63;19.30;;;;;;;-145.18;100.00;46654.53;5080441;28;20822;-72
2023/12/19 09:49:04;;;;;;;41.43;21.03;;;;;;;-145.18;100.00;46650.63;5094924;28;20031;-72
2023/12/19 09:51:32;;;;;;;35.23;18.50;;;;;;;-145.18;100.00;46652.59;5077989;28;20045;-72
2023/12/19 09:54:03;;;;;;;31.83;18.40;;;;;;;-145.18;100.00;46654.53;5075379;28;20481;-72
2023/12/19 09:56:28;;;;;;;35.20;18.70;;;;;;;-145.18;100.00;46652.59;5088589;28;20257;-72
2023/12/19 09:58:55;;;;;;;33.77;18.67;;;;;;;-145.18;100.00;46658.44;5084176;28;20268;-72
2023/12/19 10:01:21;;;;;;;30.47;17.60;;;;;;;-145.18;100.00;46656.50;5090907;28;20107;-71
2023/12/19 10:03:49;;;;;;;34.90;17.73;;;;;;;-145.18;100.00;46656.50;5083660;28;20467;-72
2023/12/19 10:06:15;;;;;;;33.07;18.10;;;;;;;-145.18;100.00;46656.50;5074609;28;20032;-72
2023/12/19 10:08:44;;;;;;;30.70;17.97;;;;;;;-145.18;100.00;46656.50;5074713;28;20633;-72
2023/12/19 10:11:16;;;;;;;33.97;16.87;;;;;;;-145.18;100.00;46652.59;5087560;28;20090;-71
2023/12/19 10:13:41;;;;;;;31.23;16.70;;;;;;;-145.18;100.00;46654.53;5079646;28;20260;-72
2023/12/19 10:16:08;;;;;;;31.93;17.23;;;;;;;-145.18;100.00;46658.44;5089145;28;20753;-71
2023/12/19 10:18:36;;;;;;;34.17;17.00;;;;;;;-145.18;100.00;46656.50;5069662;28;20377;-72
2023/12/19 10:21:08;;;;;;;31.73;16.57;;;;;;;-145.18;100.00;46658.44;5075269;28;20301;-71
2023/12/19 10:23:34;;;;;;;28.57;14.47;;;;;;;-145.18;100.00;46656.50;5084460;28;20939;-72
2023/12/19 10:26:00;;;;;;;30.90;15.77;;;;;;;-145.18;100.00;46658.44;5094284;28;20744;-72
2023/12/19 10:28:26;;;;;;;33.57;18.10;;;;;;;-145.18;100.00;46656.50;5091800;28;20287;-72
2023/12/19 10:31:09;;;;;;;24.83;15.80;;;;;;;-145.18;100.00;46656.50;5080739;28;20032;-71
2023/12/19 10:33:54;;;;;;;32.20;16.60;;;;;;;-145.18;100.00;46658.44;5094004;28;20069;-72
2023/12/19 10:36:27;;;;;;;28.40;16.47;;;;;;;-145.18;100.00;46656.50;5081936;28;20271;-71
2023/12/19 10:38:54;;;;;;;28.73;17.53;;;;;;;-145.18;100.00;46658.44;5091854;28;20351;-72
2023/12/19 10:41:23;;;;;;;28.17;16.47;;;;;;;-145.18;100.00;46654.53;5080911;28;20269;-72
2023/12/19 10:43:51;;;;;;;33.33;17.40;;;;;;;-145.18;100.00;46660.41;5092635;28;21030;-72
2023/12/19 10:46:18;;;;;;;32.30;16.40;;;;;;;-145.18;100.00;46656.50;5092937;28;20268;-72
2023/12/19 10:48:44;;;;;;;29.63;16.13;;;;;;;-145.18;100.00;46658.44;5091233;28;20256;-71